Yangon, Burma
Current Conditions -  °F | °C
As of 3:30 PM on Friday 24 Oct 2014 (Local Time) from VYYY Reporting Station
Scattered Clouds Scattered Clouds  
Wind Chill: 33°   Ceiling: Unl
Heat Index: 44°   Visibility: 6mi
Dew Point: 27°   Wind: 3mph
Humidity: 71%   Direction: 130°SE
Pressure: 29.77"   Gusts: NA
Location:  16.79°N, 96.15°E
Report Text: VYYY 240930Z 13003KT 9000 SCT020 FEW025CB 33/27 Q1008 CB SE
Loading
Personal Weather Stations






























Interactive Weather Map
Tropical Storm Tracking
New forecast layout! Learn more

10-Day Weather Forecast

Advertisements
Track Severe Weather on mobile